Terminal Aerodrome Forecast
Issued by NWS

Home | Current Version | Previous Version | Text Only | Print | Product List | Glossary On
Versions: 1 2 3 4 5 6 7 8 9 10 11 12 13 14 15 16 17 18 19 20 21 22 23 24 25
000
FTUS42 KJAX 291020 AAB
TAFVQQ
TAF AMD
KVQQ 291020Z 2910/3006 25003KT P6SM SCT250
      TEMPO 2910/2912 5SM BR SCT008
     FM291400 26008KT P6SM SCT035=

USA.gov is the U.S. government's official web portal to all federal, state and local government web resources and services.